sensor_id;sensor_type;location;lat;lon;timestamp;temperature;humidity
7658;DHT22;8462;53.156;8.220;2023-03-30T00:00:02;13.20;96.10
7658;DHT22;8462;53.156;8.220;2023-03-30T00:02:43;13.10;95.90
7658;DHT22;8462;53.156;8.220;2023-03-30T00:05:10;13.10;96.20
7658;DHT22;8462;53.156;8.220;2023-03-30T00:07:38;13.20;96.10
7658;DHT22;8462;53.156;8.220;2023-03-30T00:10:08;13.20;95.90
7658;DHT22;8462;53.156;8.220;2023-03-30T00:12:36;13.30;95.60
7658;DHT22;8462;53.156;8.220;2023-03-30T00:15:04;13.20;95.60
7658;DHT22;8462;53.156;8.220;2023-03-30T00:17:32;13.30;95.70
7658;DHT22;8462;53.156;8.220;2023-03-30T00:20:00;13.30;95.80
7658;DHT22;8462;53.156;8.220;2023-03-30T00:22:30;13.30;95.50
7658;DHT22;8462;53.156;8.220;2023-03-30T00:24:57;13.30;95.50
7658;DHT22;8462;53.156;8.220;2023-03-30T00:27:24;13.30;95.40
7658;DHT22;8462;53.156;8.220;2023-03-30T00:29:51;13.30;95.50
7658;DHT22;8462;53.156;8.220;2023-03-30T00:32:18;13.40;95.70
7658;DHT22;8462;53.156;8.220;2023-03-30T00:34:48;13.40;95.50
7658;DHT22;8462;53.156;8.220;2023-03-30T00:37:16;13.40;95.50
7658;DHT22;8462;53.156;8.220;2023-03-30T00:39:44;13.40;95.60
7658;DHT22;8462;53.156;8.220;2023-03-30T00:42:14;13.40;95.50
7658;DHT22;8462;53.156;8.220;2023-03-30T00:45:15;13.40;95.60
7658;DHT22;8462;53.156;8.220;2023-03-30T00:47:46;13.40;95.50
7658;DHT22;8462;53.156;8.220;2023-03-30T00:50:15;13.40;95.30
7658;DHT22;8462;53.156;8.220;2023-03-30T00:52:48;13.40;95.30
7658;DHT22;8462;53.156;8.220;2023-03-30T00:55:20;13.30;95.00
7658;DHT22;8462;53.156;8.220;2023-03-30T00:57:48;13.30;95.30
7658;DHT22;8462;53.156;8.220;2023-03-30T01:00:17;13.20;95.50
7658;DHT22;8462;53.156;8.220;2023-03-30T01:02:48;13.20;95.60
7658;DHT22;8462;53.156;8.220;2023-03-30T01:05:16;13.10;95.90
7658;DHT22;8462;53.156;8.220;2023-03-30T01:07:43;13.10;96.10
7658;DHT22;8462;53.156;8.220;2023-03-30T01:10:12;13.00;96.20
7658;DHT22;8462;53.156;8.220;2023-03-30T01:12:39;13.00;96.30
7658;DHT22;8462;53.156;8.220;2023-03-30T01:15:07;13.00;96.30
7658;DHT22;8462;53.156;8.220;2023-03-30T01:17:41;13.00;96.50
7658;DHT22;8462;53.156;8.220;2023-03-30T01:20:39;13.10;96.40
7658;DHT22;8462;53.156;8.220;2023-03-30T01:26:39;13.00;96.10
7658;DHT22;8462;53.156;8.220;2023-03-30T01:29:16;13.00;96.20
7658;DHT22;8462;53.156;8.220;2023-03-30T01:32:14;13.10;96.20
7658;DHT22;8462;53.156;8.220;2023-03-30T01:34:56;13.00;96.20
7658;DHT22;8462;53.156;8.220;2023-03-30T01:37:55;13.00;96.10
7658;DHT22;8462;53.156;8.220;2023-03-30T01:40:31;13.00;96.20
7658;DHT22;8462;53.156;8.220;2023-03-30T01:43:07;13.00;96.50
7658;DHT22;8462;53.156;8.220;2023-03-30T01:45:40;13.10;96.30
7658;DHT22;8462;53.156;8.220;2023-03-30T01:48:13;13.10;96.40
7658;DHT22;8462;53.156;8.220;2023-03-30T01:50:47;13.10;96.10
7658;DHT22;8462;53.156;8.220;2023-03-30T01:53:19;13.10;95.90
7658;DHT22;8462;53.156;8.220;2023-03-30T01:55:54;13.20;95.70
7658;DHT22;8462;53.156;8.220;2023-03-30T01:58:27;13.20;95.60
7658;DHT22;8462;53.156;8.220;2023-03-30T02:00:56;13.20;95.50
7658;DHT22;8462;53.156;8.220;2023-03-30T02:03:26;13.20;95.50
7658;DHT22;8462;53.156;8.220;2023-03-30T02:06:00;13.10;95.80
7658;DHT22;8462;53.156;8.220;2023-03-30T02:08:30;13.20;95.80
7658;DHT22;8462;53.156;8.220;2023-03-30T02:10:59;13.20;95.60
7658;DHT22;8462;53.156;8.220;2023-03-30T02:13:27;13.20;95.50
7658;DHT22;8462;53.156;8.220;2023-03-30T02:15:58;13.20;95.60
7658;DHT22;8462;53.156;8.220;2023-03-30T02:18:26;13.30;95.60
7658;DHT22;8462;53.156;8.220;2023-03-30T02:20:54;13.30;95.30
7658;DHT22;8462;53.156;8.220;2023-03-30T02:23:26;13.40;95.20
7658;DHT22;8462;53.156;8.220;2023-03-30T02:25:54;13.40;95.00
7658;DHT22;8462;53.156;8.220;2023-03-30T02:28:23;13.50;94.90
7658;DHT22;8462;53.156;8.220;2023-03-30T02:30:50;13.50;94.50
7658;DHT22;8462;53.156;8.220;2023-03-30T02:33:22;13.50;94.30
7658;DHT22;8462;53.156;8.220;2023-03-30T02:36:14;13.60;94.20
7658;DHT22;8462;53.156;8.220;2023-03-30T02:38:57;13.60;94.00
7658;DHT22;8462;53.156;8.220;2023-03-30T02:41:51;13.60;94.00
7658;DHT22;8462;53.156;8.220;2023-03-30T02:44:31;13.70;93.70
7658;DHT22;8462;53.156;8.220;2023-03-30T02:47:07;13.70;93.70
7658;DHT22;8462;53.156;8.220;2023-03-30T02:49:48;13.70;93.60
7658;DHT22;8462;53.156;8.220;2023-03-30T02:52:23;13.80;93.40
7658;DHT22;8462;53.156;8.220;2023-03-30T02:55:05;13.80;93.30
7658;DHT22;8462;53.156;8.220;2023-03-30T02:58:05;13.80;93.00
7658;DHT22;8462;53.156;8.220;2023-03-30T03:01:00;13.90;92.70
7658;DHT22;8462;53.156;8.220;2023-03-30T03:03:41;13.90;92.30
7658;DHT22;8462;53.156;8.220;2023-03-30T03:06:08;13.90;92.30
7658;DHT22;8462;53.156;8.220;2023-03-30T03:08:45;13.90;92.30
7658;DHT22;8462;53.156;8.220;2023-03-30T03:11:17;13.90;92.20
7658;DHT22;8462;53.156;8.220;2023-03-30T03:13:44;13.90;92.10
7658;DHT22;8462;53.156;8.220;2023-03-30T03:16:13;13.90;92.10
7658;DHT22;8462;53.156;8.220;2023-03-30T03:18:55;14.00;92.10
7658;DHT22;8462;53.156;8.220;2023-03-30T03:21:23;14.00;92.10
7658;DHT22;8462;53.156;8.220;2023-03-30T03:23:50;14.10;92.00
7658;DHT22;8462;53.156;8.220;2023-03-30T03:26:20;14.10;91.70
7658;DHT22;8462;53.156;8.220;2023-03-30T03:28:47;14.20;91.30
7658;DHT22;8462;53.156;8.220;2023-03-30T03:31:16;14.30;91.40
7658;DHT22;8462;53.156;8.220;2023-03-30T03:33:44;14.30;91.10
7658;DHT22;8462;53.156;8.220;2023-03-30T03:36:18;14.40;90.90
7658;DHT22;8462;53.156;8.220;2023-03-30T03:38:49;14.40;90.70
7658;DHT22;8462;53.156;8.220;2023-03-30T03:41:17;14.40;90.80
7658;DHT22;8462;53.156;8.220;2023-03-30T03:43:44;14.40;90.60
7658;DHT22;8462;53.156;8.220;2023-03-30T03:46:12;14.40;90.50
7658;DHT22;8462;53.156;8.220;2023-03-30T03:48:41;14.50;90.60
7658;DHT22;8462;53.156;8.220;2023-03-30T03:51:08;14.50;90.40
7658;DHT22;8462;53.156;8.220;2023-03-30T03:53:36;14.50;90.50
7658;DHT22;8462;53.156;8.220;2023-03-30T03:56:09;14.50;90.70
7658;DHT22;8462;53.156;8.220;2023-03-30T03:58:37;14.50;90.70
7658;DHT22;8462;53.156;8.220;2023-03-30T04:01:05;14.60;90.50
7658;DHT22;8462;53.156;8.220;2023-03-30T04:03:32;14.60;90.40
7658;DHT22;8462;53.156;8.220;2023-03-30T04:06:01;14.60;90.20
7658;DHT22;8462;53.156;8.220;2023-03-30T04:08:28;14.70;90.20
7658;DHT22;8462;53.156;8.220;2023-03-30T04:11:07;14.70;90.00
7658;DHT22;8462;53.156;8.220;2023-03-30T04:13:53;14.70;89.60
7658;DHT22;8462;53.156;8.220;2023-03-30T04:16:52;14.70;89.60
7658;DHT22;8462;53.156;8.220;2023-03-30T04:19:45;14.70;89.50
7658;DHT22;8462;53.156;8.220;2023-03-30T04:22:43;14.70;89.10
7658;DHT22;8462;53.156;8.220;2023-03-30T04:25:29;14.70;89.00
7658;DHT22;8462;53.156;8.220;2023-03-30T04:28:14;14.60;88.10
7658;DHT22;8462;53.156;8.220;2023-03-30T04:30:46;14.60;88.10
7658;DHT22;8462;53.156;8.220;2023-03-30T04:33:31;14.60;88.00
7658;DHT22;8462;53.156;8.220;2023-03-30T04:36:20;14.50;88.00
7658;DHT22;8462;53.156;8.220;2023-03-30T04:39:09;14.50;88.10
7658;DHT22;8462;53.156;8.220;2023-03-30T04:41:56;14.50;88.40
7658;DHT22;8462;53.156;8.220;2023-03-30T04:44:47;14.50;87.80
7658;DHT22;8462;53.156;8.220;2023-03-30T04:47:33;14.50;87.90
7658;DHT22;8462;53.156;8.220;2023-03-30T04:50:00;14.50;87.40
7658;DHT22;8462;53.156;8.220;2023-03-30T04:52:46;14.60;87.60
7658;DHT22;8462;53.156;8.220;2023-03-30T04:55:37;14.60;87.30
7658;DHT22;8462;53.156;8.220;2023-03-30T04:58:19;14.70;87.30
7658;DHT22;8462;53.156;8.220;2023-03-30T05:01:16;14.70;87.00
7658;DHT22;8462;53.156;8.220;2023-03-30T05:04:02;14.80;86.50
7658;DHT22;8462;53.156;8.220;2023-03-30T05:06:58;14.80;86.30
7658;DHT22;8462;53.156;8.220;2023-03-30T05:09:36;14.80;86.20
7658;DHT22;8462;53.156;8.220;2023-03-30T05:12:17;14.80;86.00
7658;DHT22;8462;53.156;8.220;2023-03-30T05:15:06;14.90;86.00
7658;DHT22;8462;53.156;8.220;2023-03-30T05:17:45;14.90;85.70
7658;DHT22;8462;53.156;8.220;2023-03-30T05:20:34;14.90;85.70
7658;DHT22;8462;53.156;8.220;2023-03-30T05:23:10;14.90;85.80
7658;DHT22;8462;53.156;8.220;2023-03-30T05:26:01;15.00;85.70
7658;DHT22;8462;53.156;8.220;2023-03-30T05:28:54;15.00;85.30
7658;DHT22;8462;53.156;8.220;2023-03-30T05:31:37;15.00;85.50
7658;DHT22;8462;53.156;8.220;2023-03-30T05:34:21;15.00;85.20
7658;DHT22;8462;53.156;8.220;2023-03-30T05:37:08;15.10;85.20
7658;DHT22;8462;53.156;8.220;2023-03-30T05:39:43;15.10;84.90
7658;DHT22;8462;53.156;8.220;2023-03-30T05:42:24;15.10;84.90
7658;DHT22;8462;53.156;8.220;2023-03-30T05:45:02;15.10;84.40
7658;DHT22;8462;53.156;8.220;2023-03-30T05:47:52;15.20;84.20
7658;DHT22;8462;53.156;8.220;2023-03-30T05:50:39;15.20;84.30
7658;DHT22;8462;53.156;8.220;2023-03-30T05:53:14;15.20;83.90
7658;DHT22;8462;53.156;8.220;2023-03-30T05:55:58;15.20;83.60
7658;DHT22;8462;53.156;8.220;2023-03-30T05:58:43;15.30;83.80
7658;DHT22;8462;53.156;8.220;2023-03-30T06:01:16;15.30;83.20
7658;DHT22;8462;53.156;8.220;2023-03-30T06:03:46;15.30;83.20
7658;DHT22;8462;53.156;8.220;2023-03-30T06:06:13;15.40;83.30
7658;DHT22;8462;53.156;8.220;2023-03-30T06:08:44;15.40;83.20
7658;DHT22;8462;53.156;8.220;2023-03-30T06:11:16;15.50;82.60
7658;DHT22;8462;53.156;8.220;2023-03-30T06:13:48;15.50;82.60
7658;DHT22;8462;53.156;8.220;2023-03-30T06:16:17;15.50;83.30
7658;DHT22;8462;53.156;8.220;2023-03-30T06:18:43;15.50;84.00
7658;DHT22;8462;53.156;8.220;2023-03-30T06:21:13;15.50;84.70
7658;DHT22;8462;53.156;8.220;2023-03-30T06:23:56;15.60;84.90
7658;DHT22;8462;53.156;8.220;2023-03-30T06:26:26;15.70;83.80
7658;DHT22;8462;53.156;8.220;2023-03-30T06:28:54;15.70;83.60
7658;DHT22;8462;53.156;8.220;2023-03-30T06:31:22;15.80;83.50
7658;DHT22;8462;53.156;8.220;2023-03-30T06:33:57;15.80;83.80
7658;DHT22;8462;53.156;8.220;2023-03-30T06:36:24;15.70;83.90
7658;DHT22;8462;53.156;8.220;2023-03-30T06:38:52;15.80;83.30
7658;DHT22;8462;53.156;8.220;2023-03-30T06:41:18;15.80;83.40
7658;DHT22;8462;53.156;8.220;2023-03-30T06:43:47;15.90;83.40
7658;DHT22;8462;53.156;8.220;2023-03-30T06:46:17;16.00;82.50
7658;DHT22;8462;53.156;8.220;2023-03-30T06:48:49;16.00;82.90
7658;DHT22;8462;53.156;8.220;2023-03-30T06:51:36;16.10;82.40
7658;DHT22;8462;53.156;8.220;2023-03-30T06:54:05;16.10;82.30
7658;DHT22;8462;53.156;8.220;2023-03-30T06:56:32;16.10;82.30
7658;DHT22;8462;53.156;8.220;2023-03-30T06:59:12;16.10;81.90
7658;DHT22;8462;53.156;8.220;2023-03-30T07:01:58;16.20;82.00
7658;DHT22;8462;53.156;8.220;2023-03-30T07:04:56;16.30;82.00
7658;DHT22;8462;53.156;8.220;2023-03-30T07:07:33;16.40;81.40
7658;DHT22;8462;53.156;8.220;2023-03-30T07:10:01;16.40;80.90
7658;DHT22;8462;53.156;8.220;2023-03-30T07:12:34;16.40;80.80
7658;DHT22;8462;53.156;8.220;2023-03-30T07:15:03;16.50;80.60
7658;DHT22;8462;53.156;8.220;2023-03-30T07:17:31;16.50;80.70
7658;DHT22;8462;53.156;8.220;2023-03-30T07:20:00;16.50;80.60
7658;DHT22;8462;53.156;8.220;2023-03-30T07:22:28;16.60;80.40
7658;DHT22;8462;53.156;8.220;2023-03-30T07:24:56;16.60;80.40
7658;DHT22;8462;53.156;8.220;2023-03-30T07:27:23;16.50;80.60
7658;DHT22;8462;53.156;8.220;2023-03-30T07:29:53;16.60;80.40
7658;DHT22;8462;53.156;8.220;2023-03-30T07:32:20;16.70;80.60
7658;DHT22;8462;53.156;8.220;2023-03-30T07:34:48;16.80;79.80
7658;DHT22;8462;53.156;8.220;2023-03-30T07:37:17;17.00;79.50
7658;DHT22;8462;53.156;8.220;2023-03-30T07:39:44;17.10;79.30
7658;DHT22;8462;53.156;8.220;2023-03-30T07:42:11;17.40;78.70
7658;DHT22;8462;53.156;8.220;2023-03-30T07:44:39;17.60;78.00
7658;DHT22;8462;53.156;8.220;2023-03-30T07:47:09;17.70;77.20
7658;DHT22;8462;53.156;8.220;2023-03-30T07:49:37;17.70;76.60
7658;DHT22;8462;53.156;8.220;2023-03-30T07:52:04;17.60;76.50
7658;DHT22;8462;53.156;8.220;2023-03-30T07:54:43;17.50;77.10
7658;DHT22;8462;53.156;8.220;2023-03-30T07:57:21;17.30;78.00
7658;DHT22;8462;53.156;8.220;2023-03-30T07:59:48;17.20;79.10
7658;DHT22;8462;53.156;8.220;2023-03-30T08:02:36;17.20;79.40
7658;DHT22;8462;53.156;8.220;2023-03-30T08:05:05;17.20;79.90
7658;DHT22;8462;53.156;8.220;2023-03-30T08:07:43;17.30;78.90
7658;DHT22;8462;53.156;8.220;2023-03-30T08:10:17;17.50;79.00
7658;DHT22;8462;53.156;8.220;2023-03-30T08:12:44;17.80;79.00
7658;DHT22;8462;53.156;8.220;2023-03-30T08:15:11;17.90;78.40
7658;DHT22;8462;53.156;8.220;2023-03-30T08:17:38;18.00;77.10
7658;DHT22;8462;53.156;8.220;2023-03-30T08:20:07;17.80;77.50
7658;DHT22;8462;53.156;8.220;2023-03-30T08:22:36;17.70;77.90
7658;DHT22;8462;53.156;8.220;2023-03-30T08:25:04;17.50;78.00
7658;DHT22;8462;53.156;8.220;2023-03-30T08:27:32;17.50;78.50
7658;DHT22;8462;53.156;8.220;2023-03-30T08:29:59;17.40;79.00
7658;DHT22;8462;53.156;8.220;2023-03-30T08:32:26;17.50;79.40
7658;DHT22;8462;53.156;8.220;2023-03-30T08:34:53;17.60;79.60
7658;DHT22;8462;53.156;8.220;2023-03-30T08:37:20;17.80;78.30
7658;DHT22;8462;53.156;8.220;2023-03-30T08:39:47;17.90;77.80
7658;DHT22;8462;53.156;8.220;2023-03-30T08:42:41;18.10;77.30
7658;DHT22;8462;53.156;8.220;2023-03-30T08:45:14;18.40;75.50
7658;DHT22;8462;53.156;8.220;2023-03-30T08:47:44;18.60;74.80
7658;DHT22;8462;53.156;8.220;2023-03-30T08:50:15;18.90;74.60
7658;DHT22;8462;53.156;8.220;2023-03-30T08:52:46;19.10;71.30
7658;DHT22;8462;53.156;8.220;2023-03-30T08:55:21;19.10;71.70
7658;DHT22;8462;53.156;8.220;2023-03-30T08:57:55;19.20;72.10
7658;DHT22;8462;53.156;8.220;2023-03-30T09:00:31;19.30;70.90
7658;DHT22;8462;53.156;8.220;2023-03-30T09:03:09;19.20;69.00
7658;DHT22;8462;53.156;8.220;2023-03-30T09:05:43;19.00;69.70
7658;DHT22;8462;53.156;8.220;2023-03-30T09:08:17;18.70;69.90
7658;DHT22;8462;53.156;8.220;2023-03-30T09:10:49;18.30;72.50
7658;DHT22;8462;53.156;8.220;2023-03-30T09:13:21;17.90;74.90
7658;DHT22;8462;53.156;8.220;2023-03-30T09:15:52;17.60;75.40
7658;DHT22;8462;53.156;8.220;2023-03-30T09:18:25;17.40;76.80
7658;DHT22;8462;53.156;8.220;2023-03-30T09:20:56;17.30;77.50
7658;DHT22;8462;53.156;8.220;2023-03-30T09:23:26;17.10;78.70
7658;DHT22;8462;53.156;8.220;2023-03-30T09:26:04;17.10;79.30
7658;DHT22;8462;53.156;8.220;2023-03-30T09:28:39;17.10;78.60
7658;DHT22;8462;53.156;8.220;2023-03-30T09:31:15;17.20;78.50
7658;DHT22;8462;53.156;8.220;2023-03-30T09:33:45;17.30;78.30
7658;DHT22;8462;53.156;8.220;2023-03-30T09:36:15;17.40;77.60
7658;DHT22;8462;53.156;8.220;2023-03-30T09:38:43;17.60;76.70
7658;DHT22;8462;53.156;8.220;2023-03-30T09:41:18;17.70;76.70
7658;DHT22;8462;53.156;8.220;2023-03-30T09:43:50;17.90;75.30
7658;DHT22;8462;53.156;8.220;2023-03-30T09:46:17;18.00;75.40
7658;DHT22;8462;53.156;8.220;2023-03-30T09:48:46;18.00;74.60
7658;DHT22;8462;53.156;8.220;2023-03-30T09:51:21;17.90;74.20
7658;DHT22;8462;53.156;8.220;2023-03-30T09:53:50;17.90;74.20
7658;DHT22;8462;53.156;8.220;2023-03-30T09:56:25;17.90;74.20
7658;DHT22;8462;53.156;8.220;2023-03-30T09:58:54;17.90;74.00
7658;DHT22;8462;53.156;8.220;2023-03-30T10:01:34;18.00;74.90
7658;DHT22;8462;53.156;8.220;2023-03-30T10:04:08;18.10;75.00
7658;DHT22;8462;53.156;8.220;2023-03-30T10:06:38;18.40;74.30
7658;DHT22;8462;53.156;8.220;2023-03-30T10:09:11;18.60;73.40
7658;DHT22;8462;53.156;8.220;2023-03-30T10:11:41;18.90;72.20
7658;DHT22;8462;53.156;8.220;2023-03-30T10:14:32;19.20;71.30
7658;DHT22;8462;53.156;8.220;2023-03-30T10:17:02;19.40;68.90
7658;DHT22;8462;53.156;8.220;2023-03-30T10:19:32;19.20;69.70
7658;DHT22;8462;53.156;8.220;2023-03-30T10:22:00;18.90;70.00
7658;DHT22;8462;53.156;8.220;2023-03-30T10:24:30;18.30;72.60
7658;DHT22;8462;53.156;8.220;2023-03-30T10:27:02;17.50;75.40
7658;DHT22;8462;53.156;8.220;2023-03-30T10:29:31;16.80;79.30
7658;DHT22;8462;53.156;8.220;2023-03-30T10:32:01;16.50;82.10
7658;DHT22;8462;53.156;8.220;2023-03-30T10:34:34;16.30;82.90
7658;DHT22;8462;53.156;8.220;2023-03-30T10:37:05;16.20;84.30
7658;DHT22;8462;53.156;8.220;2023-03-30T10:39:34;16.40;84.10
7658;DHT22;8462;53.156;8.220;2023-03-30T10:42:03;16.60;84.00
7658;DHT22;8462;53.156;8.220;2023-03-30T10:44:40;16.70;84.10
7658;DHT22;8462;53.156;8.220;2023-03-30T10:47:39;16.80;82.50
7658;DHT22;8462;53.156;8.220;2023-03-30T10:50:18;16.90;81.70
7658;DHT22;8462;53.156;8.220;2023-03-30T10:52:57;17.00;80.10
7658;DHT22;8462;53.156;8.220;2023-03-30T10:55:32;17.20;78.90
7658;DHT22;8462;53.156;8.220;2023-03-30T10:58:06;17.30;77.60
7658;DHT22;8462;53.156;8.220;2023-03-30T11:00:54;17.40;76.10
7658;DHT22;8462;53.156;8.220;2023-03-30T11:03:24;17.50;75.60
7658;DHT22;8462;53.156;8.220;2023-03-30T11:05:56;17.70;73.90
7658;DHT22;8462;53.156;8.220;2023-03-30T11:08:28;17.80;72.30
7658;DHT22;8462;53.156;8.220;2023-03-30T11:10:59;17.80;71.40
7658;DHT22;8462;53.156;8.220;2023-03-30T11:13:28;17.80;71.50
7658;DHT22;8462;53.156;8.220;2023-03-30T11:16:01;17.80;72.50
7658;DHT22;8462;53.156;8.220;2023-03-30T11:18:36;17.80;72.60
7658;DHT22;8462;53.156;8.220;2023-03-30T11:21:07;18.00;71.20
7658;DHT22;8462;53.156;8.220;2023-03-30T11:23:42;18.10;70.60
7658;DHT22;8462;53.156;8.220;2023-03-30T11:26:14;18.20;69.60
7658;DHT22;8462;53.156;8.220;2023-03-30T11:28:57;18.10;69.70
7658;DHT22;8462;53.156;8.220;2023-03-30T11:31:50;18.20;69.30
7658;DHT22;8462;53.156;8.220;2023-03-30T11:34:25;18.10;69.20
7658;DHT22;8462;53.156;8.220;2023-03-30T11:36:59;18.10;69.50
7658;DHT22;8462;53.156;8.220;2023-03-30T11:39:31;18.10;69.80
7658;DHT22;8462;53.156;8.220;2023-03-30T11:42:05;18.20;68.60
7658;DHT22;8462;53.156;8.220;2023-03-30T11:44:34;18.20;67.60
7658;DHT22;8462;53.156;8.220;2023-03-30T11:47:13;18.20;67.50
7658;DHT22;8462;53.156;8.220;2023-03-30T11:49:53;18.20;66.80
7658;DHT22;8462;53.156;8.220;2023-03-30T11:52:30;18.30;66.40
7658;DHT22;8462;53.156;8.220;2023-03-30T11:55:18;18.40;65.10
7658;DHT22;8462;53.156;8.220;2023-03-30T11:57:54;18.10;63.60
7658;DHT22;8462;53.156;8.220;2023-03-30T12:00:34;17.90;63.60
7658;DHT22;8462;53.156;8.220;2023-03-30T12:03:15;17.80;63.10
7658;DHT22;8462;53.156;8.220;2023-03-30T12:05:50;17.60;64.10
7658;DHT22;8462;53.156;8.220;2023-03-30T12:08:41;17.70;63.30
7658;DHT22;8462;53.156;8.220;2023-03-30T12:11:17;17.70;62.70
7658;DHT22;8462;53.156;8.220;2023-03-30T12:13:47;17.70;63.20
7658;DHT22;8462;53.156;8.220;2023-03-30T12:16:18;17.80;63.00
7658;DHT22;8462;53.156;8.220;2023-03-30T12:18:56;18.00;62.50
7658;DHT22;8462;53.156;8.220;2023-03-30T12:21:31;18.10;60.60
7658;DHT22;8462;53.156;8.220;2023-03-30T12:24:05;18.10;60.80
7658;DHT22;8462;53.156;8.220;2023-03-30T12:26:37;18.20;60.30
7658;DHT22;8462;53.156;8.220;2023-03-30T12:29:09;18.40;60.30
7658;DHT22;8462;53.156;8.220;2023-03-30T12:32:03;18.50;59.70
7658;DHT22;8462;53.156;8.220;2023-03-30T12:34:33;18.70;60.10
7658;DHT22;8462;53.156;8.220;2023-03-30T12:37:04;18.80;59.60
7658;DHT22;8462;53.156;8.220;2023-03-30T12:39:39;18.80;58.10
7658;DHT22;8462;53.156;8.220;2023-03-30T12:42:21;18.80;59.00
7658;DHT22;8462;53.156;8.220;2023-03-30T12:48:13;18.40;60.10
7658;DHT22;8462;53.156;8.220;2023-03-30T12:50:53;18.40;60.70
7658;DHT22;8462;53.156;8.220;2023-03-30T12:53:52;18.50;61.30
7658;DHT22;8462;53.156;8.220;2023-03-30T12:56:27;18.60;61.30
7658;DHT22;8462;53.156;8.220;2023-03-30T12:59:27;18.80;60.20
7658;DHT22;8462;53.156;8.220;2023-03-30T13:02:17;18.80;60.00
7658;DHT22;8462;53.156;8.220;2023-03-30T13:04:51;18.80;60.10
7658;DHT22;8462;53.156;8.220;2023-03-30T13:07:24;19.10;60.00
7658;DHT22;8462;53.156;8.220;2023-03-30T13:09:55;19.20;58.10
7658;DHT22;8462;53.156;8.220;2023-03-30T13:12:36;19.10;58.30
7658;DHT22;8462;53.156;8.220;2023-03-30T13:15:29;18.80;59.60
7658;DHT22;8462;53.156;8.220;2023-03-30T13:17:58;18.60;60.00
7658;DHT22;8462;53.156;8.220;2023-03-30T13:20:31;18.50;60.70
7658;DHT22;8462;53.156;8.220;2023-03-30T13:23:05;18.40;61.00
7658;DHT22;8462;53.156;8.220;2023-03-30T13:25:43;18.30;61.30
7658;DHT22;8462;53.156;8.220;2023-03-30T13:28:34;18.10;62.20
7658;DHT22;8462;53.156;8.220;2023-03-30T13:31:08;17.90;62.60
7658;DHT22;8462;53.156;8.220;2023-03-30T13:33:41;17.90;63.30
7658;DHT22;8462;53.156;8.220;2023-03-30T13:36:13;18.00;63.10
7658;DHT22;8462;53.156;8.220;2023-03-30T13:38:57;18.10;62.10
7658;DHT22;8462;53.156;8.220;2023-03-30T13:41:37;18.20;62.50
7658;DHT22;8462;53.156;8.220;2023-03-30T13:44:32;18.20;61.90
7658;DHT22;8462;53.156;8.220;2023-03-30T13:47:14;18.50;60.50
7658;DHT22;8462;53.156;8.220;2023-03-30T13:49:48;18.80;59.20
7658;DHT22;8462;53.156;8.220;2023-03-30T13:52:22;18.90;58.00
7658;DHT22;8462;53.156;8.220;2023-03-30T13:54:53;18.90;58.10
7658;DHT22;8462;53.156;8.220;2023-03-30T13:57:31;18.90;57.80
7658;DHT22;8462;53.156;8.220;2023-03-30T14:00:03;19.10;57.80
7658;DHT22;8462;53.156;8.220;2023-03-30T14:02:32;19.40;55.70
7658;DHT22;8462;53.156;8.220;2023-03-30T14:05:12;19.50;55.60
7658;DHT22;8462;53.156;8.220;2023-03-30T14:07:40;19.30;56.30
7658;DHT22;8462;53.156;8.220;2023-03-30T14:10:14;19.10;57.20
7658;DHT22;8462;53.156;8.220;2023-03-30T14:12:42;18.90;58.20
7658;DHT22;8462;53.156;8.220;2023-03-30T14:15:21;18.80;59.10
7658;DHT22;8462;53.156;8.220;2023-03-30T14:17:51;19.10;59.00
7658;DHT22;8462;53.156;8.220;2023-03-30T14:20:28;19.20;57.60
7658;DHT22;8462;53.156;8.220;2023-03-30T14:23:02;19.40;57.70
7658;DHT22;8462;53.156;8.220;2023-03-30T14:25:34;19.30;56.70
7658;DHT22;8462;53.156;8.220;2023-03-30T14:28:02;19.30;58.00
7658;DHT22;8462;53.156;8.220;2023-03-30T14:30:29;19.30;57.50
7658;DHT22;8462;53.156;8.220;2023-03-30T14:33:08;19.40;57.90
7658;DHT22;8462;53.156;8.220;2023-03-30T14:35:39;19.40;57.40
7658;DHT22;8462;53.156;8.220;2023-03-30T14:38:08;19.60;57.50
7658;DHT22;8462;53.156;8.220;2023-03-30T14:40:38;19.60;55.70
7658;DHT22;8462;53.156;8.220;2023-03-30T14:43:09;19.50;56.00
7658;DHT22;8462;53.156;8.220;2023-03-30T14:45:37;19.50;56.10
7658;DHT22;8462;53.156;8.220;2023-03-30T14:48:04;19.40;55.20
7658;DHT22;8462;53.156;8.220;2023-03-30T14:50:31;19.30;55.90
7658;DHT22;8462;53.156;8.220;2023-03-30T14:52:59;19.20;56.60
7658;DHT22;8462;53.156;8.220;2023-03-30T14:55:27;19.10;57.10
7658;DHT22;8462;53.156;8.220;2023-03-30T14:57:55;19.00;56.40
7658;DHT22;8462;53.156;8.220;2023-03-30T15:00:23;18.80;56.80
7658;DHT22;8462;53.156;8.220;2023-03-30T15:02:52;18.60;57.00
7658;DHT22;8462;53.156;8.220;2023-03-30T15:05:22;18.50;57.80
7658;DHT22;8462;53.156;8.220;2023-03-30T15:07:51;18.40;59.10
7658;DHT22;8462;53.156;8.220;2023-03-30T15:10:24;18.40;60.00
7658;DHT22;8462;53.156;8.220;2023-03-30T15:12:55;18.60;59.90
7658;DHT22;8462;53.156;8.220;2023-03-30T15:15:25;18.70;59.80
7658;DHT22;8462;53.156;8.220;2023-03-30T15:17:54;18.70;58.70
7658;DHT22;8462;53.156;8.220;2023-03-30T15:20:23;18.60;59.10
7658;DHT22;8462;53.156;8.220;2023-03-30T15:22:52;18.50;59.90
7658;DHT22;8462;53.156;8.220;2023-03-30T15:25:21;18.50;60.30
7658;DHT22;8462;53.156;8.220;2023-03-30T15:27:53;18.40;60.50
7658;DHT22;8462;53.156;8.220;2023-03-30T15:30:27;18.30;60.60
7658;DHT22;8462;53.156;8.220;2023-03-30T15:32:55;18.30;61.10
7658;DHT22;8462;53.156;8.220;2023-03-30T15:35:25;18.30;61.30
7658;DHT22;8462;53.156;8.220;2023-03-30T15:37:53;18.20;61.20
7658;DHT22;8462;53.156;8.220;2023-03-30T15:40:31;18.10;61.80
7658;DHT22;8462;53.156;8.220;2023-03-30T15:43:14;18.00;62.40
7658;DHT22;8462;53.156;8.220;2023-03-30T15:45:49;18.00;62.90
7658;DHT22;8462;53.156;8.220;2023-03-30T15:48:20;18.00;63.80
7658;DHT22;8462;53.156;8.220;2023-03-30T15:50:53;18.00;65.10
7658;DHT22;8462;53.156;8.220;2023-03-30T15:53:32;17.90;65.20
7658;DHT22;8462;53.156;8.220;2023-03-30T15:55:59;17.80;65.60
7658;DHT22;8462;53.156;8.220;2023-03-30T15:58:28;17.70;65.60
7658;DHT22;8462;53.156;8.220;2023-03-30T16:00:56;17.70;65.30
7658;DHT22;8462;53.156;8.220;2023-03-30T16:03:35;17.70;65.10
7658;DHT22;8462;53.156;8.220;2023-03-30T16:06:06;17.60;65.60
7658;DHT22;8462;53.156;8.220;2023-03-30T16:08:36;17.50;65.60
7658;DHT22;8462;53.156;8.220;2023-03-30T16:11:08;17.40;66.10
7658;DHT22;8462;53.156;8.220;2023-03-30T16:13:39;17.30;66.60
7658;DHT22;8462;53.156;8.220;2023-03-30T16:16:08;17.20;66.40
7658;DHT22;8462;53.156;8.220;2023-03-30T16:18:36;17.10;66.70
7658;DHT22;8462;53.156;8.220;2023-03-30T16:21:03;17.00;67.20
7658;DHT22;8462;53.156;8.220;2023-03-30T16:23:30;17.00;67.30
7658;DHT22;8462;53.156;8.220;2023-03-30T16:26:03;17.00;67.50
7658;DHT22;8462;53.156;8.220;2023-03-30T16:28:32;17.00;67.50
7658;DHT22;8462;53.156;8.220;2023-03-30T16:31:02;17.00;67.80
7658;DHT22;8462;53.156;8.220;2023-03-30T16:33:33;16.90;68.10
7658;DHT22;8462;53.156;8.220;2023-03-30T16:36:01;16.90;68.50
7658;DHT22;8462;53.156;8.220;2023-03-30T16:38:28;16.90;68.90
7658;DHT22;8462;53.156;8.220;2023-03-30T16:40:57;16.80;69.20
7658;DHT22;8462;53.156;8.220;2023-03-30T16:43:26;16.70;69.10
7658;DHT22;8462;53.156;8.220;2023-03-30T16:45:54;16.80;69.40
7658;DHT22;8462;53.156;8.220;2023-03-30T16:48:21;16.70;69.40
7658;DHT22;8462;53.156;8.220;2023-03-30T16:50:53;16.80;70.10
7658;DHT22;8462;53.156;8.220;2023-03-30T16:53:21;16.70;70.50